sensor_id;sensor_type;location;lat;lon;timestamp;P1;durP1;ratioP1;P2;durP2;ratioP2
2320;SDS011;15376;48.540;9.268;2022-11-12T00:00:22;19.20;;;14.80;;
2320;SDS011;15376;48.540;9.268;2022-11-12T00:02:48;16.10;;;14.60;;
2320;SDS011;15376;48.540;9.268;2022-11-12T00:05:13;18.00;;;14.93;;
2320;SDS011;15376;48.540;9.268;2022-11-12T00:07:38;20.13;;;14.33;;
2320;SDS011;15376;48.540;9.268;2022-11-12T00:10:04;18.27;;;14.40;;
2320;SDS011;15376;48.540;9.268;2022-11-12T00:12:30;16.47;;;14.30;;
2320;SDS011;15376;48.540;9.268;2022-11-12T00:14:55;16.50;;;14.80;;
2320;SDS011;15376;48.540;9.268;2022-11-12T00:17:20;18.67;;;15.50;;
2320;SDS011;15376;48.540;9.268;2022-11-12T00:19:46;14.20;;;12.80;;
2320;SDS011;15376;48.540;9.268;2022-11-12T00:22:11;15.10;;;13.27;;
2320;SDS011;15376;48.540;9.268;2022-11-12T00:24:36;14.67;;;11.83;;
2320;SDS011;15376;48.540;9.268;2022-11-12T00:27:02;14.80;;;12.87;;
2320;SDS011;15376;48.540;9.268;2022-11-12T00:29:27;21.20;;;14.47;;
2320;SDS011;15376;48.540;9.268;2022-11-12T00:31:52;16.90;;;14.60;;
2320;SDS011;15376;48.540;9.268;2022-11-12T00:34:18;22.50;;;14.60;;
2320;SDS011;15376;48.540;9.268;2022-11-12T00:36:44;19.33;;;13.70;;
2320;SDS011;15376;48.540;9.268;2022-11-12T00:39:09;17.50;;;13.70;;
2320;SDS011;15376;48.540;9.268;2022-11-12T00:41:35;15.40;;;13.10;;
2320;SDS011;15376;48.540;9.268;2022-11-12T00:44:00;15.60;;;13.87;;
2320;SDS011;15376;48.540;9.268;2022-11-12T00:46:25;16.77;;;12.97;;
2320;SDS011;15376;48.540;9.268;2022-11-12T00:48:51;16.80;;;12.13;;
2320;SDS011;15376;48.540;9.268;2022-11-12T00:51:16;21.03;;;12.50;;
2320;SDS011;15376;48.540;9.268;2022-11-12T00:53:41;14.87;;;12.40;;
2320;SDS011;15376;48.540;9.268;2022-11-12T00:56:07;17.80;;;11.50;;
2320;SDS011;15376;48.540;9.268;2022-11-12T00:58:34;13.47;;;10.90;;
2320;SDS011;15376;48.540;9.268;2022-11-12T01:01:18;13.57;;;11.63;;
2320;SDS011;15376;48.540;9.268;2022-11-12T01:03:43;15.17;;;11.43;;
2320;SDS011;15376;48.540;9.268;2022-11-12T01:06:30;13.03;;;11.07;;
2320;SDS011;15376;48.540;9.268;2022-11-12T01:08:54;12.63;;;10.30;;
2320;SDS011;15376;48.540;9.268;2022-11-12T01:11:21;12.27;;;11.00;;
2320;SDS011;15376;48.540;9.268;2022-11-12T01:13:53;12.73;;;10.20;;
2320;SDS011;15376;48.540;9.268;2022-11-12T01:16:21;13.10;;;11.43;;
2320;SDS011;15376;48.540;9.268;2022-11-12T01:18:51;13.57;;;11.47;;
2320;SDS011;15376;48.540;9.268;2022-11-12T01:21:19;12.90;;;11.40;;
2320;SDS011;15376;48.540;9.268;2022-11-12T01:23:45;17.27;;;12.13;;
2320;SDS011;15376;48.540;9.268;2022-11-12T01:26:11;13.63;;;11.57;;
2320;SDS011;15376;48.540;9.268;2022-11-12T01:28:39;16.30;;;11.27;;
2320;SDS011;15376;48.540;9.268;2022-11-12T01:33:44;28.17;;;12.00;;
2320;SDS011;15376;48.540;9.268;2022-11-12T01:36:11;13.73;;;11.03;;
2320;SDS011;15376;48.540;9.268;2022-11-12T01:38:38;14.27;;;10.60;;
2320;SDS011;15376;48.540;9.268;2022-11-12T01:41:06;17.30;;;11.90;;
2320;SDS011;15376;48.540;9.268;2022-11-12T01:43:33;21.80;;;12.27;;
2320;SDS011;15376;48.540;9.268;2022-11-12T01:46:00;23.20;;;12.17;;
2320;SDS011;15376;48.540;9.268;2022-11-12T01:48:29;40.67;;;13.40;;
2320;SDS011;15376;48.540;9.268;2022-11-12T01:50:58;20.10;;;12.17;;
2320;SDS011;15376;48.540;9.268;2022-11-12T01:53:27;16.03;;;12.07;;
2320;SDS011;15376;48.540;9.268;2022-11-12T01:55:58;15.80;;;12.30;;
2320;SDS011;15376;48.540;9.268;2022-11-12T01:58:25;37.87;;;14.23;;
2320;SDS011;15376;48.540;9.268;2022-11-12T02:00:53;17.70;;;12.57;;
2320;SDS011;15376;48.540;9.268;2022-11-12T02:03:20;15.40;;;12.23;;
2320;SDS011;15376;48.540;9.268;2022-11-12T02:05:48;18.80;;;13.90;;
2320;SDS011;15376;48.540;9.268;2022-11-12T02:08:35;16.77;;;13.40;;
2320;SDS011;15376;48.540;9.268;2022-11-12T02:11:15;36.90;;;14.70;;
2320;SDS011;15376;48.540;9.268;2022-11-12T02:13:43;21.40;;;14.90;;
2320;SDS011;15376;48.540;9.268;2022-11-12T02:16:26;25.57;;;14.17;;
2320;SDS011;15376;48.540;9.268;2022-11-12T02:18:55;33.93;;;14.60;;
2320;SDS011;15376;48.540;9.268;2022-11-12T02:21:21;25.40;;;12.67;;
2320;SDS011;15376;48.540;9.268;2022-11-12T02:23:57;16.30;;;12.10;;
2320;SDS011;15376;48.540;9.268;2022-11-12T02:26:24;13.17;;;11.77;;
2320;SDS011;15376;48.540;9.268;2022-11-12T02:28:50;12.00;;;10.70;;
2320;SDS011;15376;48.540;9.268;2022-11-12T02:31:15;31.70;;;12.90;;
2320;SDS011;15376;48.540;9.268;2022-11-12T02:33:40;16.97;;;12.47;;
2320;SDS011;15376;48.540;9.268;2022-11-12T02:36:06;20.03;;;13.50;;
2320;SDS011;15376;48.540;9.268;2022-11-12T02:38:31;36.93;;;17.40;;
2320;SDS011;15376;48.540;9.268;2022-11-12T02:40:57;25.70;;;13.37;;
2320;SDS011;15376;48.540;9.268;2022-11-12T02:43:22;32.20;;;15.00;;
2320;SDS011;15376;48.540;9.268;2022-11-12T02:45:47;21.70;;;12.57;;
2320;SDS011;15376;48.540;9.268;2022-11-12T02:48:13;24.30;;;13.20;;
2320;SDS011;15376;48.540;9.268;2022-11-12T02:50:38;32.40;;;13.73;;
2320;SDS011;15376;48.540;9.268;2022-11-12T02:53:03;21.63;;;13.53;;
2320;SDS011;15376;48.540;9.268;2022-11-12T02:55:29;21.70;;;11.40;;
2320;SDS011;15376;48.540;9.268;2022-11-12T02:57:57;23.33;;;12.57;;
2320;SDS011;15376;48.540;9.268;2022-11-12T03:00:23;14.93;;;11.00;;
2320;SDS011;15376;48.540;9.268;2022-11-12T03:02:48;18.77;;;11.63;;
2320;SDS011;15376;48.540;9.268;2022-11-12T03:05:23;18.23;;;11.20;;
2320;SDS011;15376;48.540;9.268;2022-11-12T03:07:56;13.40;;;11.30;;
2320;SDS011;15376;48.540;9.268;2022-11-12T03:10:23;14.03;;;11.67;;
2320;SDS011;15376;48.540;9.268;2022-11-12T03:12:50;13.20;;;10.73;;
2320;SDS011;15376;48.540;9.268;2022-11-12T03:15:17;23.93;;;11.90;;
2320;SDS011;15376;48.540;9.268;2022-11-12T03:17:42;15.83;;;11.10;;
2320;SDS011;15376;48.540;9.268;2022-11-12T03:20:09;14.53;;;11.30;;
2320;SDS011;15376;48.540;9.268;2022-11-12T03:22:35;20.17;;;11.60;;
2320;SDS011;15376;48.540;9.268;2022-11-12T03:25:00;13.40;;;10.40;;
2320;SDS011;15376;48.540;9.268;2022-11-12T03:27:26;22.27;;;11.30;;
2320;SDS011;15376;48.540;9.268;2022-11-12T03:29:51;18.63;;;11.93;;
2320;SDS011;15376;48.540;9.268;2022-11-12T03:32:16;13.97;;;10.70;;
2320;SDS011;15376;48.540;9.268;2022-11-12T03:34:42;16.07;;;12.53;;
2320;SDS011;15376;48.540;9.268;2022-11-12T03:37:07;17.00;;;11.93;;
2320;SDS011;15376;48.540;9.268;2022-11-12T03:39:33;27.97;;;13.83;;
2320;SDS011;15376;48.540;9.268;2022-11-12T03:42:00;41.27;;;12.90;;
2320;SDS011;15376;48.540;9.268;2022-11-12T03:44:25;19.37;;;13.13;;
2320;SDS011;15376;48.540;9.268;2022-11-12T03:46:50;19.60;;;13.20;;
2320;SDS011;15376;48.540;9.268;2022-11-12T03:49:16;17.23;;;12.03;;
2320;SDS011;15376;48.540;9.268;2022-11-12T03:51:41;20.20;;;12.10;;
2320;SDS011;15376;48.540;9.268;2022-11-12T03:54:06;16.60;;;13.20;;
2320;SDS011;15376;48.540;9.268;2022-11-12T03:56:32;13.67;;;11.40;;
2320;SDS011;15376;48.540;9.268;2022-11-12T03:58:57;12.43;;;11.20;;
2320;SDS011;15376;48.540;9.268;2022-11-12T04:01:22;12.70;;;11.10;;
2320;SDS011;15376;48.540;9.268;2022-11-12T04:03:48;14.10;;;11.17;;
2320;SDS011;15376;48.540;9.268;2022-11-12T04:06:13;13.40;;;11.37;;
2320;SDS011;15376;48.540;9.268;2022-11-12T04:08:57;14.40;;;11.60;;
2320;SDS011;15376;48.540;9.268;2022-11-12T04:11:23;13.40;;;11.50;;
2320;SDS011;15376;48.540;9.268;2022-11-12T04:13:48;14.80;;;11.90;;
2320;SDS011;15376;48.540;9.268;2022-11-12T04:16:15;13.03;;;11.63;;
2320;SDS011;15376;48.540;9.268;2022-11-12T04:19:00;13.73;;;12.30;;
2320;SDS011;15376;48.540;9.268;2022-11-12T04:24:34;11.80;;;10.60;;
2320;SDS011;15376;48.540;9.268;2022-11-12T04:29:53;15.33;;;11.40;;
2320;SDS011;15376;48.540;9.268;2022-11-12T04:32:38;13.00;;;10.60;;
2320;SDS011;15376;48.540;9.268;2022-11-12T04:35:06;12.57;;;10.97;;
2320;SDS011;15376;48.540;9.268;2022-11-12T04:37:32;13.17;;;11.77;;
2320;SDS011;15376;48.540;9.268;2022-11-12T04:40:24;12.20;;;10.63;;
2320;SDS011;15376;48.540;9.268;2022-11-12T04:43:13;14.23;;;11.63;;
2320;SDS011;15376;48.540;9.268;2022-11-12T04:45:59;12.90;;;9.90;;
2320;SDS011;15376;48.540;9.268;2022-11-12T04:48:26;10.00;;;9.00;;
2320;SDS011;15376;48.540;9.268;2022-11-12T04:50:59;12.40;;;11.20;;
2320;SDS011;15376;48.540;9.268;2022-11-12T04:53:26;11.50;;;10.17;;
2320;SDS011;15376;48.540;9.268;2022-11-12T04:55:53;10.73;;;9.70;;
2320;SDS011;15376;48.540;9.268;2022-11-12T04:58:20;13.73;;;11.00;;
2320;SDS011;15376;48.540;9.268;2022-11-12T05:00:46;10.40;;;9.00;;
2320;SDS011;15376;48.540;9.268;2022-11-12T05:03:12;14.57;;;10.63;;
2320;SDS011;15376;48.540;9.268;2022-11-12T05:05:37;13.90;;;9.83;;
2320;SDS011;15376;48.540;9.268;2022-11-12T05:08:03;11.63;;;10.53;;
2320;SDS011;15376;48.540;9.268;2022-11-12T05:10:28;12.57;;;11.27;;
2320;SDS011;15376;48.540;9.268;2022-11-12T05:12:54;12.43;;;10.77;;
2320;SDS011;15376;48.540;9.268;2022-11-12T05:15:20;9.70;;;8.70;;
2320;SDS011;15376;48.540;9.268;2022-11-12T05:17:45;11.07;;;9.93;;
2320;SDS011;15376;48.540;9.268;2022-11-12T05:20:11;12.17;;;9.87;;
2320;SDS011;15376;48.540;9.268;2022-11-12T05:22:37;10.57;;;9.57;;
2320;SDS011;15376;48.540;9.268;2022-11-12T05:25:03;11.40;;;9.83;;
2320;SDS011;15376;48.540;9.268;2022-11-12T05:27:30;11.77;;;9.70;;
2320;SDS011;15376;48.540;9.268;2022-11-12T05:29:55;13.10;;;10.40;;
2320;SDS011;15376;48.540;9.268;2022-11-12T05:32:21;11.40;;;9.77;;
2320;SDS011;15376;48.540;9.268;2022-11-12T05:34:46;16.23;;;10.20;;
2320;SDS011;15376;48.540;9.268;2022-11-12T05:37:12;12.17;;;9.63;;
2320;SDS011;15376;48.540;9.268;2022-11-12T05:39:38;10.73;;;9.60;;
2320;SDS011;15376;48.540;9.268;2022-11-12T05:42:03;11.50;;;8.63;;
2320;SDS011;15376;48.540;9.268;2022-11-12T05:44:29;10.07;;;7.70;;
2320;SDS011;15376;48.540;9.268;2022-11-12T05:46:55;11.70;;;9.90;;
2320;SDS011;15376;48.540;9.268;2022-11-12T05:49:20;9.20;;;8.30;;
2320;SDS011;15376;48.540;9.268;2022-11-12T05:51:45;10.37;;;8.53;;
2320;SDS011;15376;48.540;9.268;2022-11-12T05:54:11;10.47;;;9.43;;
2320;SDS011;15376;48.540;9.268;2022-11-12T05:56:36;12.33;;;9.33;;
2320;SDS011;15376;48.540;9.268;2022-11-12T05:59:03;9.57;;;8.30;;
2320;SDS011;15376;48.540;9.268;2022-11-12T06:01:30;11.17;;;9.20;;
2320;SDS011;15376;48.540;9.268;2022-11-12T06:03:56;10.77;;;9.67;;
2320;SDS011;15376;48.540;9.268;2022-11-12T06:06:22;11.40;;;10.20;;
2320;SDS011;15376;48.540;9.268;2022-11-12T06:08:47;11.30;;;8.90;;
2320;SDS011;15376;48.540;9.268;2022-11-12T06:11:13;10.27;;;9.20;;
2320;SDS011;15376;48.540;9.268;2022-11-12T06:13:39;10.30;;;9.20;;
2320;SDS011;15376;48.540;9.268;2022-11-12T06:16:05;12.53;;;8.20;;
2320;SDS011;15376;48.540;9.268;2022-11-12T06:18:31;12.90;;;10.60;;
2320;SDS011;15376;48.540;9.268;2022-11-12T06:21:03;11.77;;;10.10;;
2320;SDS011;15376;48.540;9.268;2022-11-12T06:23:52;12.33;;;10.83;;
2320;SDS011;15376;48.540;9.268;2022-11-12T06:26:22;12.63;;;10.10;;
2320;SDS011;15376;48.540;9.268;2022-11-12T06:28:49;12.33;;;10.80;;
2320;SDS011;15376;48.540;9.268;2022-11-12T06:31:15;16.43;;;11.07;;
2320;SDS011;15376;48.540;9.268;2022-11-12T06:33:41;10.90;;;9.80;;
2320;SDS011;15376;48.540;9.268;2022-11-12T06:36:07;10.87;;;9.87;;
2320;SDS011;15376;48.540;9.268;2022-11-12T06:38:36;15.03;;;9.77;;
2320;SDS011;15376;48.540;9.268;2022-11-12T06:41:02;12.90;;;9.50;;
2320;SDS011;15376;48.540;9.268;2022-11-12T06:43:29;8.90;;;8.00;;
2320;SDS011;15376;48.540;9.268;2022-11-12T06:45:59;14.20;;;10.50;;
2320;SDS011;15376;48.540;9.268;2022-11-12T06:48:26;9.23;;;8.20;;
2320;SDS011;15376;48.540;9.268;2022-11-12T06:50:52;13.83;;;10.83;;
2320;SDS011;15376;48.540;9.268;2022-11-12T06:53:17;13.27;;;9.43;;
2320;SDS011;15376;48.540;9.268;2022-11-12T06:55:42;11.93;;;9.03;;
2320;SDS011;15376;48.540;9.268;2022-11-12T06:58:07;16.50;;;10.10;;
2320;SDS011;15376;48.540;9.268;2022-11-12T07:00:33;12.80;;;9.90;;
2320;SDS011;15376;48.540;9.268;2022-11-12T07:02:58;11.27;;;9.10;;
2320;SDS011;15376;48.540;9.268;2022-11-12T07:05:24;15.87;;;10.67;;
2320;SDS011;15376;48.540;9.268;2022-11-12T07:07:49;12.20;;;9.50;;
2320;SDS011;15376;48.540;9.268;2022-11-12T07:10:14;12.80;;;10.30;;
2320;SDS011;15376;48.540;9.268;2022-11-12T07:12:40;9.97;;;8.90;;
2320;SDS011;15376;48.540;9.268;2022-11-12T07:15:05;10.90;;;9.43;;
2320;SDS011;15376;48.540;9.268;2022-11-12T07:17:31;9.23;;;8.03;;
2320;SDS011;15376;48.540;9.268;2022-11-12T07:19:56;12.87;;;10.20;;
2320;SDS011;15376;48.540;9.268;2022-11-12T07:22:21;12.60;;;9.73;;
2320;SDS011;15376;48.540;9.268;2022-11-12T07:24:47;16.77;;;10.60;;
2320;SDS011;15376;48.540;9.268;2022-11-12T07:27:12;13.60;;;9.40;;
2320;SDS011;15376;48.540;9.268;2022-11-12T07:29:37;12.00;;;9.13;;
2320;SDS011;15376;48.540;9.268;2022-11-12T07:32:03;11.80;;;9.90;;
2320;SDS011;15376;48.540;9.268;2022-11-12T07:34:28;14.23;;;9.90;;
2320;SDS011;15376;48.540;9.268;2022-11-12T07:36:53;13.03;;;9.17;;
2320;SDS011;15376;48.540;9.268;2022-11-12T07:39:19;11.93;;;9.33;;
2320;SDS011;15376;48.540;9.268;2022-11-12T07:41:44;10.73;;;8.50;;
2320;SDS011;15376;48.540;9.268;2022-11-12T07:44:09;7.70;;;6.93;;
2320;SDS011;15376;48.540;9.268;2022-11-12T07:46:35;7.70;;;7.00;;
2320;SDS011;15376;48.540;9.268;2022-11-12T07:49:00;27.67;;;18.00;;
2320;SDS011;15376;48.540;9.268;2022-11-12T07:51:27;14.40;;;12.03;;
2320;SDS011;15376;48.540;9.268;2022-11-12T07:53:54;12.13;;;9.07;;
2320;SDS011;15376;48.540;9.268;2022-11-12T07:56:21;10.20;;;8.03;;
2320;SDS011;15376;48.540;9.268;2022-11-12T07:58:48;10.33;;;8.87;;
2320;SDS011;15376;48.540;9.268;2022-11-12T08:01:30;9.37;;;7.50;;
2320;SDS011;15376;48.540;9.268;2022-11-12T08:04:01;9.80;;;8.37;;
2320;SDS011;15376;48.540;9.268;2022-11-12T08:06:28;8.60;;;7.70;;
2320;SDS011;15376;48.540;9.268;2022-11-12T08:08:55;8.80;;;7.90;;
2320;SDS011;15376;48.540;9.268;2022-11-12T08:11:22;7.47;;;6.80;;
2320;SDS011;15376;48.540;9.268;2022-11-12T08:13:48;9.47;;;8.47;;
2320;SDS011;15376;48.540;9.268;2022-11-12T08:16:14;8.07;;;7.20;;
2320;SDS011;15376;48.540;9.268;2022-11-12T08:18:40;7.57;;;6.70;;
2320;SDS011;15376;48.540;9.268;2022-11-12T08:21:08;8.87;;;6.90;;
2320;SDS011;15376;48.540;9.268;2022-11-12T08:23:35;8.30;;;7.50;;
2320;SDS011;15376;48.540;9.268;2022-11-12T08:26:02;10.30;;;7.97;;
2320;SDS011;15376;48.540;9.268;2022-11-12T08:28:30;8.00;;;7.20;;
2320;SDS011;15376;48.540;9.268;2022-11-12T08:30:57;7.00;;;6.17;;
2320;SDS011;15376;48.540;9.268;2022-11-12T08:33:27;7.07;;;6.40;;
2320;SDS011;15376;48.540;9.268;2022-11-12T08:35:52;7.60;;;6.80;;
2320;SDS011;15376;48.540;9.268;2022-11-12T08:38:18;7.00;;;6.33;;
2320;SDS011;15376;48.540;9.268;2022-11-12T08:40:43;7.50;;;6.80;;
2320;SDS011;15376;48.540;9.268;2022-11-12T08:43:09;5.63;;;5.13;;
2320;SDS011;15376;48.540;9.268;2022-11-12T08:45:38;5.57;;;5.10;;
2320;SDS011;15376;48.540;9.268;2022-11-12T08:48:06;5.87;;;5.27;;
2320;SDS011;15376;48.540;9.268;2022-11-12T08:50:37;5.17;;;4.67;;
2320;SDS011;15376;48.540;9.268;2022-11-12T08:53:04;5.87;;;4.13;;
2320;SDS011;15376;48.540;9.268;2022-11-12T08:55:32;4.10;;;3.70;;
2320;SDS011;15376;48.540;9.268;2022-11-12T08:57:57;3.73;;;3.43;;
2320;SDS011;15376;48.540;9.268;2022-11-12T09:00:47;8.17;;;5.97;;
2320;SDS011;15376;48.540;9.268;2022-11-12T09:03:15;5.00;;;4.50;;
2320;SDS011;15376;48.540;9.268;2022-11-12T09:05:43;4.10;;;3.70;;
2320;SDS011;15376;48.540;9.268;2022-11-12T09:08:09;3.80;;;3.50;;
2320;SDS011;15376;48.540;9.268;2022-11-12T09:10:36;4.53;;;4.13;;
2320;SDS011;15376;48.540;9.268;2022-11-12T09:13:03;5.00;;;3.57;;
2320;SDS011;15376;48.540;9.268;2022-11-12T09:15:29;4.57;;;4.17;;
2320;SDS011;15376;48.540;9.268;2022-11-12T09:17:55;4.10;;;3.80;;
2320;SDS011;15376;48.540;9.268;2022-11-12T09:20:25;3.60;;;3.30;;
2320;SDS011;15376;48.540;9.268;2022-11-12T09:22:59;3.50;;;3.20;;
2320;SDS011;15376;48.540;9.268;2022-11-12T09:25:25;4.10;;;3.80;;
2320;SDS011;15376;48.540;9.268;2022-11-12T09:27:51;4.23;;;3.90;;
2320;SDS011;15376;48.540;9.268;2022-11-12T09:30:17;3.57;;;3.27;;
2320;SDS011;15376;48.540;9.268;2022-11-12T09:32:42;13.77;;;8.10;;
2320;SDS011;15376;48.540;9.268;2022-11-12T09:35:08;4.63;;;4.23;;
2320;SDS011;15376;48.540;9.268;2022-11-12T09:37:35;4.23;;;3.93;;
2320;SDS011;15376;48.540;9.268;2022-11-12T09:40:02;4.27;;;3.87;;
2320;SDS011;15376;48.540;9.268;2022-11-12T09:42:28;3.60;;;3.30;;
2320;SDS011;15376;48.540;9.268;2022-11-12T09:45:10;4.60;;;4.27;;
2320;SDS011;15376;48.540;9.268;2022-11-12T09:47:43;6.80;;;6.10;;
2320;SDS011;15376;48.540;9.268;2022-11-12T09:56:12;5.43;;;4.93;;
2320;SDS011;15376;48.540;9.268;2022-11-12T09:58:38;4.47;;;4.07;;
2320;SDS011;15376;48.540;9.268;2022-11-12T10:03:56;4.40;;;4.00;;
2320;SDS011;15376;48.540;9.268;2022-11-12T10:09:42;4.63;;;4.20;;
2320;SDS011;15376;48.540;9.268;2022-11-12T10:12:24;4.70;;;4.30;;
2320;SDS011;15376;48.540;9.268;2022-11-12T10:18:07;4.90;;;4.50;;
2320;SDS011;15376;48.540;9.268;2022-11-12T10:20:58;4.47;;;4.07;;
2320;SDS011;15376;48.540;9.268;2022-11-12T10:23:44;4.30;;;3.90;;
2320;SDS011;15376;48.540;9.268;2022-11-12T10:26:12;4.67;;;4.30;;
2320;SDS011;15376;48.540;9.268;2022-11-12T10:28:42;5.13;;;4.63;;
2320;SDS011;15376;48.540;9.268;2022-11-12T10:31:15;5.20;;;4.80;;
2320;SDS011;15376;48.540;9.268;2022-11-12T10:33:43;9.77;;;6.70;;
2320;SDS011;15376;48.540;9.268;2022-11-12T10:38:37;7.10;;;6.40;;
2320;SDS011;15376;48.540;9.268;2022-11-12T10:41:24;5.87;;;5.00;;
2320;SDS011;15376;48.540;9.268;2022-11-12T10:43:59;8.23;;;6.67;;
2320;SDS011;15376;48.540;9.268;2022-11-12T10:46:29;4.97;;;4.50;;
2320;SDS011;15376;48.540;9.268;2022-11-12T10:49:06;5.83;;;5.33;;
2320;SDS011;15376;48.540;9.268;2022-11-12T10:51:42;5.07;;;4.63;;
2320;SDS011;15376;48.540;9.268;2022-11-12T10:56:50;5.63;;;5.13;;
2320;SDS011;15376;48.540;9.268;2022-11-12T10:59:16;5.40;;;4.90;;
2320;SDS011;15376;48.540;9.268;2022-11-12T11:01:43;6.63;;;5.73;;
2320;SDS011;15376;48.540;9.268;2022-11-12T11:04:18;4.80;;;4.40;;
2320;SDS011;15376;48.540;9.268;2022-11-12T11:07:05;4.97;;;4.57;;
2320;SDS011;15376;48.540;9.268;2022-11-12T11:09:50;4.73;;;4.40;;
2320;SDS011;15376;48.540;9.268;2022-11-12T11:15:38;6.80;;;5.87;;
2320;SDS011;15376;48.540;9.268;2022-11-12T11:17:46;5.30;;;4.80;;
2320;SDS011;15376;48.540;9.268;2022-11-12T11:20:17;5.73;;;5.33;;
2320;SDS011;15376;48.540;9.268;2022-11-12T11:25:41;7.97;;;5.90;;
2320;SDS011;15376;48.540;9.268;2022-11-12T11:30:48;6.53;;;5.87;;
2320;SDS011;15376;48.540;9.268;2022-11-12T11:33:41;6.70;;;6.10;;
2320;SDS011;15376;48.540;9.268;2022-11-12T11:39:02;5.93;;;5.20;;
2320;SDS011;15376;48.540;9.268;2022-11-12T11:50:11;8.07;;;7.27;;
2320;SDS011;15376;48.540;9.268;2022-11-12T12:01:27;7.20;;;6.60;;
2320;SDS011;15376;48.540;9.268;2022-11-12T12:18:16;6.43;;;5.83;;
2320;SDS011;15376;48.540;9.268;2022-11-12T12:26:39;10.73;;;9.57;;
2320;SDS011;15376;48.540;9.268;2022-11-12T12:29:16;13.43;;;10.80;;
2320;SDS011;15376;48.540;9.268;2022-11-12T12:31:47;10.33;;;8.90;;
2320;SDS011;15376;48.540;9.268;2022-11-12T12:34:25;9.13;;;8.10;;
2320;SDS011;15376;48.540;9.268;2022-11-12T12:37:00;9.60;;;7.50;;
2320;SDS011;15376;48.540;9.268;2022-11-12T12:39:34;6.03;;;5.53;;
2320;SDS011;15376;48.540;9.268;2022-11-12T12:44:45;7.10;;;6.53;;
2320;SDS011;15376;48.540;9.268;2022-11-12T12:47:24;6.70;;;6.10;;
2320;SDS011;15376;48.540;9.268;2022-11-12T12:49:52;8.20;;;7.10;;
2320;SDS011;15376;48.540;9.268;2022-11-12T12:52:18;7.90;;;7.10;;
2320;SDS011;15376;48.540;9.268;2022-11-12T13:02:55;6.93;;;6.33;;
2320;SDS011;15376;48.540;9.268;2022-11-12T13:05:30;7.77;;;6.97;;
2320;SDS011;15376;48.540;9.268;2022-11-12T13:08:00;8.17;;;7.20;;
2320;SDS011;15376;48.540;9.268;2022-11-12T13:10:33;10.43;;;8.70;;
2320;SDS011;15376;48.540;9.268;2022-11-12T13:15:43;7.80;;;6.80;;
2320;SDS011;15376;48.540;9.268;2022-11-12T13:21:10;7.30;;;6.53;;
2320;SDS011;15376;48.540;9.268;2022-11-12T13:23:46;7.00;;;6.03;;
2320;SDS011;15376;48.540;9.268;2022-11-12T13:29:20;6.80;;;6.13;;
2320;SDS011;15376;48.540;9.268;2022-11-12T13:35:08;7.60;;;6.90;;
2320;SDS011;15376;48.540;9.268;2022-11-12T13:43:31;6.83;;;6.33;;
2320;SDS011;15376;48.540;9.268;2022-11-12T13:53:49;8.13;;;7.33;;
2320;SDS011;15376;48.540;9.268;2022-11-12T13:56:26;7.00;;;6.40;;
2320;SDS011;15376;48.540;9.268;2022-11-12T13:58:53;7.03;;;6.30;;
2320;SDS011;15376;48.540;9.268;2022-11-12T14:01:19;6.87;;;6.27;;
2320;SDS011;15376;48.540;9.268;2022-11-12T14:03:47;6.80;;;6.20;;
2320;SDS011;15376;48.540;9.268;2022-11-12T14:09:02;6.77;;;6.10;;
2320;SDS011;15376;48.540;9.268;2022-11-12T14:22:37;12.30;;;10.70;;
2320;SDS011;15376;48.540;9.268;2022-11-12T14:25:38;8.90;;;8.00;;
2320;SDS011;15376;48.540;9.268;2022-11-12T14:27:57;11.90;;;7.87;;
2320;SDS011;15376;48.540;9.268;2022-11-12T14:30:23;8.00;;;7.00;;
2320;SDS011;15376;48.540;9.268;2022-11-12T14:32:52;9.07;;;8.13;;
2320;SDS011;15376;48.540;9.268;2022-11-12T14:35:32;10.80;;;7.80;;
2320;SDS011;15376;48.540;9.268;2022-11-12T14:40:54;10.10;;;9.10;;
2320;SDS011;15376;48.540;9.268;2022-11-12T14:45:55;10.63;;;7.60;;
2320;SDS011;15376;48.540;9.268;2022-11-12T14:48:23;9.20;;;7.73;;
2320;SDS011;15376;48.540;9.268;2022-11-12T14:50:50;9.10;;;7.70;;
2320;SDS011;15376;48.540;9.268;2022-11-12T14:53:26;10.23;;;7.73;;
2320;SDS011;15376;48.540;9.268;2022-11-12T14:55:56;8.57;;;7.63;;
2320;SDS011;15376;48.540;9.268;2022-11-12T14:58:24;10.00;;;7.20;;
2320;SDS011;15376;48.540;9.268;2022-11-12T15:00:52;8.57;;;6.97;;
2320;SDS011;15376;48.540;9.268;2022-11-12T15:03:19;9.60;;;8.63;;
2320;SDS011;15376;48.540;9.268;2022-11-12T15:05:54;11.10;;;7.70;;
2320;SDS011;15376;48.540;9.268;2022-11-12T15:08:27;7.93;;;7.23;;
2320;SDS011;15376;48.540;9.268;2022-11-12T15:10:54;8.40;;;7.60;;
2320;SDS011;15376;48.540;9.268;2022-11-12T15:13:20;11.97;;;8.10;;
2320;SDS011;15376;48.540;9.268;2022-11-12T15:15:49;12.00;;;9.20;;
2320;SDS011;15376;48.540;9.268;2022-11-12T15:18:19;9.77;;;7.80;;
2320;SDS011;15376;48.540;9.268;2022-11-12T15:23:47;18.33;;;10.20;;
2320;SDS011;15376;48.540;9.268;2022-11-12T15:26:22;9.30;;;8.40;;
2320;SDS011;15376;48.540;9.268;2022-11-12T15:29:02;9.87;;;8.33;;
2320;SDS011;15376;48.540;9.268;2022-11-12T15:35:00;12.33;;;9.47;;
2320;SDS011;15376;48.540;9.268;2022-11-12T15:37:04;10.63;;;9.07;;
2320;SDS011;15376;48.540;9.268;2022-11-12T15:39:33;10.60;;;8.90;;
2320;SDS011;15376;48.540;9.268;2022-11-12T15:43:09;11.57;;;8.30;;
2320;SDS011;15376;48.540;9.268;2022-11-12T15:45:24;9.13;;;7.50;;
2320;SDS011;15376;48.540;9.268;2022-11-12T15:47:49;9.03;;;8.13;;
2320;SDS011;15376;48.540;9.268;2022-11-12T15:50:23;8.87;;;7.63;;
2320;SDS011;15376;48.540;9.268;2022-11-12T15:52:49;9.10;;;7.93;;
2320;SDS011;15376;48.540;9.268;2022-11-12T15:55:15;11.70;;;9.43;;
2320;SDS011;15376;48.540;9.268;2022-11-12T15:57:47;12.97;;;9.20;;
2320;SDS011;15376;48.540;9.268;2022-11-12T16:00:17;10.97;;;8.93;;
2320;SDS011;15376;48.540;9.268;2022-11-12T16:02:43;10.27;;;8.30;;
2320;SDS011;15376;48.540;9.268;2022-11-12T16:05:13;10.63;;;8.60;;
2320;SDS011;15376;48.540;9.268;2022-11-12T16:07:40;10.43;;;7.80;;
2320;SDS011;15376;48.540;9.268;2022-11-12T16:10:06;9.30;;;7.80;;
2320;SDS011;15376;48.540;9.268;2022-11-12T16:12:32;8.90;;;8.00;;
2320;SDS011;15376;48.540;9.268;2022-11-12T16:14:58;10.77;;;8.93;;
2320;SDS011;15376;48.540;9.268;2022-11-12T16:17:25;12.07;;;8.50;;
2320;SDS011;15376;48.540;9.268;2022-11-12T16:19:50;8.63;;;7.80;;
2320;SDS011;15376;48.540;9.268;2022-11-12T16:22:16;10.40;;;8.13;;
2320;SDS011;15376;48.540;9.268;2022-11-12T16:24:41;11.50;;;8.93;;
2320;SDS011;15376;48.540;9.268;2022-11-12T16:27:15;11.53;;;8.50;;
2320;SDS011;15376;48.540;9.268;2022-11-12T16:29:42;12.07;;;10.87;;
2320;SDS011;15376;48.540;9.268;2022-11-12T16:32:11;10.30;;;8.53;;
2320;SDS011;15376;48.540;9.268;2022-11-12T16:34:37;9.93;;;8.77;;
2320;SDS011;15376;48.540;9.268;2022-11-12T16:37:03;10.83;;;8.90;;
2320;SDS011;15376;48.540;9.268;2022-11-12T16:39:28;10.40;;;9.33;;
2320;SDS011;15376;48.540;9.268;2022-11-12T16:41:55;9.30;;;7.70;;
2320;SDS011;15376;48.540;9.268;2022-11-12T16:44:20;11.53;;;8.00;;
2320;SDS011;15376;48.540;9.268;2022-11-12T16:46:46;10.90;;;8.10;;
2320;SDS011;15376;48.540;9.268;2022-11-12T16:49:11;8.70;;;7.80;;
2320;SDS011;15376;48.540;9.268;2022-11-12T16:51:40;16.50;;;9.83;;
2320;SDS011;15376;48.540;9.268;2022-11-12T16:54:06;9.27;;;8.33;;
2320;SDS011;15376;48.540;9.268;2022-11-12T16:56:32;10.63;;;9.53;;
2320;SDS011;15376;48.540;9.268;2022-11-12T16:58:58;11.43;;;9.97;;
2320;SDS011;15376;48.540;9.268;2022-11-12T17:01:28;9.97;;;9.07;;
2320;SDS011;15376;48.540;9.268;2022-11-12T17:03:55;11.77;;;8.80;;
2320;SDS011;15376;48.540;9.268;2022-11-12T17:06:32;9.13;;;8.20;;
2320;SDS011;15376;48.540;9.268;2022-11-12T17:09:00;9.57;;;8.67;;
2320;SDS011;15376;48.540;9.268;2022-11-12T17:11:26;8.10;;;7.30;;
2320;SDS011;15376;48.540;9.268;2022-11-12T17:13:52;9.90;;;8.90;;
2320;SDS011;15376;48.540;9.268;2022-11-12T17:16:17;9.60;;;8.30;;